Main page
METAR-TAF:

METAR-TAF

Airports :

Juneau, Alaska, United States

Juneau International Airport

latitude: 58-21-17N, longitude: 134-34-34W, elevation: 6 m

Current weather observation

The report was made 27 minutes ago, at 20:53 UTC
Wind 4 kt from the East/Southeast
Temperature 12°C
Humidity 76%
Pressure 1017 hPa
Visibility: 16.1 km
Broken clouds at a height of 3700 ft
Overcast at a height of 5000 ft

METAR: PAJN 222053Z 11004KT 10SM BKN037 OVC050 12/08 A3003 RMK AO2 RAB00E13 SLP168 P0000 60000 T01220083 58003

Time: 13:20 (21:20 UTC)

Forecast

The report was made 3 hours and 53 minutes ago, at 17:27 UTC
Forecast valid from 22 at 18 UTC to 23 at 18 UTC
Wind 10 kt from the East
Visibility: 10 km
Scattered clouds at a height of 1800 ft
Overcast at a height of 3500 ft
light rain showers
From 23 at 0700 UTC
Wind 6 kt from the East/Southeast
Visibility: 10 km
Scattered clouds at a height of 2000 ft
Overcast at a height of 3500 ft

TAF: PAJN 221727Z 2218/2318 10010KT P6SM -SHRA SCT018 OVC035 FM230700 11006KT P6SM SCT020 OVC035

Weather observations and forecasts of more than 4000 airports (METAR and TAF reports).

The available stations are represented by yellow and red dots on the map.

Hover mouse over dot to see the name of the station.

Then click to see weather observations and forecasts.

To change the map : click on the green buttons with a black cross to zoom in, on the green button with a dash to zoom out, or on the green arrows for adjacent maps.


METAR-TAF: